createdAt,value
2019-04-29T00:00:03.255Z,79.49
2019-04-29T00:02:36.953Z,79.41
2019-04-29T00:05:08.815Z,79.41
2019-04-29T00:07:41.296Z,79.45
2019-04-29T00:10:16.874Z,79.33
2019-04-29T00:12:47.869Z,79.24
2019-04-29T00:15:20.478Z,79.17
2019-04-29T00:17:57.437Z,79.30
2019-04-29T00:20:30.879Z,79.40
2019-04-29T00:23:01.878Z,79.39
2019-04-29T00:25:34.328Z,79.29
2019-04-29T00:28:05.363Z,79.27
2019-04-29T00:30:36.399Z,79.21
2019-04-29T00:33:07.409Z,79.32
2019-04-29T00:35:39.428Z,79.33
2019-04-29T00:38:28.397Z,79.51
2019-04-29T00:41:16.240Z,79.54
2019-04-29T00:44:00.657Z,79.47
2019-04-29T00:46:31.803Z,79.57
2019-04-29T00:49:02.912Z,79.83
2019-04-29T00:51:34.687Z,79.74
2019-04-29T00:54:12.241Z,79.84
2019-04-29T00:56:43.070Z,79.80
2019-04-29T00:59:14.152Z,79.79
2019-04-29T01:01:45.188Z,79.80
2019-04-29T01:04:17.635Z,79.71
2019-04-29T01:06:48.711Z,79.69
2019-04-29T01:09:20.323Z,79.75
2019-04-29T01:11:51.301Z,79.65
2019-04-29T01:14:22.432Z,79.73
2019-04-29T01:16:53.539Z,80.04
2019-04-29T01:19:27.576Z,79.89
2019-04-29T01:21:58.623Z,79.93
2019-04-29T01:24:29.639Z,79.80
2019-04-29T01:27:03.165Z,79.54
2019-04-29T01:29:34.789Z,79.66
2019-04-29T01:32:07.906Z,79.48
2019-04-29T01:34:43.508Z,79.63
2019-04-29T01:37:14.575Z,79.66
2019-04-29T01:39:50.229Z,79.95
2019-04-29T01:42:22.852Z,79.96
2019-04-29T01:44:53.866Z,79.83
2019-04-29T01:47:24.908Z,79.79
2019-04-29T01:49:55.917Z,79.71
2019-04-29T01:52:26.935Z,79.64
2019-04-29T01:54:57.906Z,79.61
2019-04-29T01:57:28.861Z,79.67
2019-04-29T01:59:59.869Z,79.65
2019-04-29T02:02:30.841Z,79.51
2019-04-29T02:05:02.817Z,79.50
2019-04-29T02:07:33.833Z,79.66
2019-04-29T02:10:09.986Z,79.44
2019-04-29T02:12:41.088Z,79.42
2019-04-29T02:15:12.111Z,79.46
2019-04-29T02:17:43.143Z,79.66
2019-04-29T02:20:14.182Z,79.53
2019-04-29T02:22:51.307Z,79.61
2019-04-29T02:25:28.225Z,79.49
2019-04-29T02:27:59.260Z,79.42
2019-04-29T02:30:45.366Z,79.41
2019-04-29T02:33:16.385Z,79.44
2019-04-29T02:35:47.384Z,79.81
2019-04-29T02:38:20.022Z,79.77
2019-04-29T02:40:52.664Z,79.79
2019-04-29T02:43:25.255Z,79.71
2019-04-29T02:45:57.701Z,79.79
2019-04-29T02:48:34.459Z,79.75
2019-04-29T02:51:02.973Z,79.54
2019-04-29T02:53:37.340Z,79.53
2019-04-29T02:56:08.365Z,79.57
2019-04-29T02:58:45.990Z,79.44
2019-04-29T03:01:26.130Z,79.31
2019-04-29T03:04:16.861Z,79.17
2019-04-29T03:06:48.703Z,79.09
2019-04-29T03:09:20.693Z,78.92
2019-04-29T03:11:51.730Z,79.21
2019-04-29T03:14:23.105Z,79.40
2019-04-29T03:16:54.287Z,79.43
2019-04-29T03:19:26.935Z,79.50
2019-04-29T03:21:59.786Z,79.45
2019-04-29T03:24:31.758Z,79.32
2019-04-29T03:27:03.122Z,79.28
2019-04-29T03:29:34.203Z,79.17
2019-04-29T03:32:05.200Z,79.11
2019-04-29T03:34:37.601Z,79.01
2019-04-29T03:37:08.528Z,78.99
2019-04-29T03:39:40.514Z,78.99
2019-04-29T03:42:11.494Z,79.01
2019-04-29T03:44:45.557Z,78.98
2019-04-29T03:47:18.972Z,79.10
2019-04-29T03:49:50.945Z,79.05
2019-04-29T03:52:22.151Z,79.07
2019-04-29T03:54:53.226Z,78.99
2019-04-29T03:57:24.326Z,78.96
2019-04-29T03:59:57.059Z,78.95
2019-04-29T04:02:32.942Z,78.91
2019-04-29T04:05:08.413Z,78.77
2019-04-29T04:07:41.789Z,78.66
2019-04-29T04:10:14.005Z,78.61
2019-04-29T04:12:45.075Z,78.59
2019-04-29T04:15:16.109Z,78.47
2019-04-29T04:17:48.670Z,78.15
2019-04-29T04:20:19.887Z,78.01
2019-04-29T04:22:50.880Z,77.86
2019-04-29T04:25:22.097Z,77.68
2019-04-29T04:27:53.032Z,77.58
2019-04-29T04:30:24.070Z,77.26
2019-04-29T04:32:56.591Z,76.98
2019-04-29T04:35:27.622Z,76.46
2019-04-29T04:37:58.801Z,76.17
2019-04-29T04:40:35.214Z,75.86
2019-04-29T04:43:06.344Z,75.17
2019-04-29T04:45:37.435Z,74.45
2019-04-29T04:48:08.443Z,74.36
2019-04-29T04:50:39.481Z,73.24
2019-04-29T04:53:10.693Z,72.17
2019-04-29T04:55:44.166Z,70.70
2019-04-29T04:58:16.615Z,69.54
2019-04-29T05:00:47.573Z,68.54
2019-04-29T05:03:18.582Z,67.73
2019-04-29T05:05:49.614Z,66.11
2019-04-29T05:08:21.485Z,64.94
2019-04-29T05:10:53.433Z,63.72
2019-04-29T05:13:28.489Z,62.03
2019-04-29T05:15:57.371Z,60.79
2019-04-29T05:18:28.307Z,59.59
2019-04-29T05:20:59.336Z,58.17
2019-04-29T05:23:31.920Z,56.91
2019-04-29T05:26:03.893Z,56.35
2019-04-29T05:28:38.800Z,55.98
2019-04-29T05:31:09.832Z,56.01
2019-04-29T05:33:40.819Z,56.42
2019-04-29T05:36:13.431Z,55.88
2019-04-29T05:38:47.605Z,55.68
2019-04-29T05:41:21.504Z,55.03
2019-04-29T05:43:55.502Z,55.61
2019-04-29T05:46:43.435Z,55.43
2019-04-29T05:49:16.000Z,55.81
2019-04-29T05:51:51.478Z,55.54
2019-04-29T05:54:26.911Z,54.05
2019-04-29T05:56:56.941Z,54.55
2019-04-29T05:59:27.857Z,55.16
2019-04-29T06:01:58.878Z,54.30
2019-04-29T06:04:31.550Z,53.81
2019-04-29T06:07:02.562Z,54.18
2019-04-29T06:09:34.387Z,53.20
2019-04-29T06:12:09.319Z,53.78
2019-04-29T06:14:41.754Z,53.97
2019-04-29T06:17:14.289Z,53.15
2019-04-29T06:19:45.283Z,52.01
2019-04-29T06:22:16.304Z,51.83
2019-04-29T06:24:47.293Z,52.68
2019-04-29T06:27:19.259Z,51.60
2019-04-29T06:29:50.287Z,52.12
2019-04-29T06:32:24.856Z,51.05
2019-04-29T06:34:54.057Z,51.60
2019-04-29T06:37:26.685Z,51.43
2019-04-29T06:40:00.793Z,51.07
2019-04-29T06:42:33.593Z,50.90
2019-04-29T06:45:06.543Z,50.16
2019-04-29T06:47:37.650Z,51.20
2019-04-29T06:50:09.475Z,51.59
2019-04-29T06:52:41.967Z,51.61
2019-04-29T06:55:14.565Z,50.84
2019-04-29T06:57:46.403Z,51.91
2019-04-29T07:00:22.217Z,51.78
2019-04-29T07:02:53.272Z,50.83
2019-04-29T07:05:24.347Z,52.19
2019-04-29T07:07:56.973Z,51.15
2019-04-29T07:10:31.198Z,51.74
2019-04-29T07:13:06.261Z,50.27
2019-04-29T07:15:37.278Z,51.68
2019-04-29T07:18:08.385Z,51.47
2019-04-29T07:20:43.481Z,52.02
2019-04-29T07:23:14.572Z,51.56
2019-04-29T07:25:45.581Z,51.83
2019-04-29T07:28:18.460Z,51.75
2019-04-29T07:31:01.138Z,51.61
2019-04-29T07:33:24.427Z,50.45
2019-04-29T07:35:55.229Z,52.08
2019-04-29T07:38:40.580Z,52.10
2019-04-29T07:41:02.062Z,52.33
2019-04-29T07:43:38.546Z,51.94
2019-04-29T07:46:21.319Z,51.74
2019-04-29T07:49:01.262Z,52.04
2019-04-29T07:51:27.988Z,52.12
2019-04-29T07:54:00.609Z,52.60
2019-04-29T07:56:32.441Z,52.60
2019-04-29T07:59:06.718Z,52.50
2019-04-29T08:01:37.913Z,52.83
2019-04-29T08:04:09.168Z,52.89
2019-04-29T08:06:42.969Z,53.51
2019-04-29T08:09:13.979Z,53.71
2019-04-29T08:11:47.627Z,53.29
2019-04-29T08:14:21.963Z,53.40
2019-04-29T08:16:52.995Z,53.16
2019-04-29T08:19:29.602Z,52.22
2019-04-29T08:21:59.934Z,52.99
2019-04-29T08:24:31.008Z,53.04
2019-04-29T08:27:02.011Z,52.25
2019-04-29T08:29:35.848Z,53.64
2019-04-29T08:32:08.124Z,52.48
2019-04-29T08:34:40.953Z,53.41
2019-04-29T08:37:12.133Z,52.88
2019-04-29T08:39:43.226Z,53.01
2019-04-29T08:42:15.806Z,53.07
2019-04-29T08:44:59.751Z,53.00
2019-04-29T08:47:31.640Z,52.51
2019-04-29T08:50:02.120Z,53.12
2019-04-29T08:52:34.549Z,52.97
2019-04-29T08:55:08.765Z,53.75
2019-04-29T08:57:39.772Z,53.35
2019-04-29T09:00:11.957Z,52.87
2019-04-29T09:02:47.135Z,52.78
2019-04-29T09:05:15.874Z,52.93
2019-04-29T09:07:46.897Z,52.52
2019-04-29T09:10:19.966Z,52.82
2019-04-29T09:12:52.488Z,53.60
2019-04-29T09:15:24.406Z,53.73
2019-04-29T09:17:55.816Z,53.48
2019-04-29T09:20:26.886Z,53.78
2019-04-29T09:22:59.487Z,53.48
2019-04-29T09:25:32.126Z,54.00
2019-04-29T09:28:04.739Z,52.79
2019-04-29T09:30:38.690Z,53.83
2019-04-29T09:33:13.218Z,53.93
2019-04-29T09:35:42.266Z,55.09
2019-04-29T09:38:13.310Z,55.77
2019-04-29T09:40:54.468Z,54.73
2019-04-29T09:43:42.275Z,55.98
2019-04-29T09:46:18.421Z,55.93
2019-04-29T09:48:51.273Z,56.10
2019-04-29T09:51:27.772Z,56.01
2019-04-29T09:53:58.198Z,56.59
2019-04-29T09:56:29.430Z,55.23
2019-04-29T09:59:18.123Z,54.26
2019-04-29T10:02:00.000Z,54.72
2019-04-29T10:04:32.586Z,55.29
2019-04-29T10:07:04.314Z,55.53
2019-04-29T10:09:35.413Z,55.60
2019-04-29T10:12:09.010Z,55.44
2019-04-29T10:14:40.674Z,57.24
2019-04-29T10:17:22.403Z,57.29
2019-04-29T10:20:01.274Z,56.50
2019-04-29T10:22:32.327Z,57.27
2019-04-29T10:25:04.666Z,56.55
2019-04-29T10:27:35.844Z,55.43
2019-04-29T10:30:08.248Z,56.47
2019-04-29T10:32:42.545Z,56.99
2019-04-29T10:35:14.571Z,57.03
2019-04-29T10:37:47.165Z,56.83
2019-04-29T10:40:28.396Z,57.24
2019-04-29T10:43:17.390Z,57.52
2019-04-29T10:46:06.315Z,57.85
2019-04-29T10:48:45.082Z,58.15
2019-04-29T10:51:17.170Z,57.88
2019-04-29T10:53:51.113Z,58.61
2019-04-29T10:56:22.270Z,58.61
2019-04-29T10:58:54.703Z,59.24
2019-04-29T11:01:30.378Z,58.30
2019-04-29T11:04:02.838Z,58.88
2019-04-29T11:06:35.881Z,58.49
2019-04-29T11:09:14.358Z,57.51
2019-04-29T11:11:47.915Z,57.85
2019-04-29T11:14:24.556Z,57.89
2019-04-29T11:16:54.105Z,57.67
2019-04-29T11:19:25.346Z,57.31
2019-04-29T11:21:56.443Z,57.50
2019-04-29T11:24:44.280Z,57.64
2019-04-29T11:27:25.725Z,57.22
2019-04-29T11:30:02.296Z,57.98
2019-04-29T11:32:34.107Z,57.63
2019-04-29T11:35:08.379Z,57.29
2019-04-29T11:37:40.875Z,57.16
2019-04-29T11:40:12.083Z,56.89
2019-04-29T11:42:43.024Z,57.35
2019-04-29T11:45:14.869Z,56.80
2019-04-29T11:47:45.878Z,56.49
2019-04-29T11:50:34.596Z,56.29
2019-04-29T11:53:06.277Z,56.56
2019-04-29T11:55:37.423Z,56.24
2019-04-29T11:58:26.087Z,56.25
2019-04-29T12:01:03.927Z,56.72
2019-04-29T12:03:39.093Z,56.46
2019-04-29T12:06:16.207Z,56.45
2019-04-29T12:08:48.172Z,56.01
2019-04-29T12:11:19.753Z,55.88
2019-04-29T12:14:08.521Z,56.70
2019-04-29T12:16:41.361Z,56.10
2019-04-29T12:19:17.054Z,56.46
2019-04-29T12:21:50.357Z,56.11
2019-04-29T12:24:21.345Z,56.27
2019-04-29T12:26:52.365Z,55.64
2019-04-29T12:29:23.360Z,56.16
2019-04-29T12:32:12.186Z,57.01
2019-04-29T12:34:50.774Z,56.77
2019-04-29T12:37:25.593Z,56.56
2019-04-29T12:40:01.403Z,55.55
2019-04-29T12:42:50.397Z,56.29
2019-04-29T12:45:38.267Z,56.35
2019-04-29T12:48:23.439Z,56.00
2019-04-29T12:50:42.216Z,54.04
2019-04-29T12:53:13.266Z,55.55
2019-04-29T12:55:49.429Z,55.28
2019-04-29T12:58:19.206Z,54.93
2019-04-29T13:00:59.768Z,55.68
2019-04-29T13:03:25.583Z,55.92
2019-04-29T13:06:14.319Z,55.73
2019-04-29T13:08:53.688Z,55.87
2019-04-29T13:11:37.625Z,53.95
2019-04-29T13:14:01.774Z,54.59
2019-04-29T13:16:34.770Z,55.04
2019-04-29T13:19:13.319Z,54.11
2019-04-29T13:21:45.830Z,54.18
2019-04-29T13:24:24.045Z,54.82
2019-04-29T13:26:50.532Z,54.26
2019-04-29T13:29:27.364Z,55.16
2019-04-29T13:31:54.221Z,54.27
2019-04-29T13:34:30.940Z,54.70
2019-04-29T13:37:07.221Z,54.26
2019-04-29T13:39:39.639Z,53.69
2019-04-29T13:42:12.868Z,53.76
2019-04-29T13:44:42.560Z,54.73
2019-04-29T13:47:17.743Z,54.74
2019-04-29T13:49:50.328Z,54.16
2019-04-29T13:52:21.537Z,55.00
2019-04-29T13:54:53.530Z,54.73
2019-04-29T13:57:24.551Z,55.04
2019-04-29T14:00:13.239Z,54.46
2019-04-29T14:03:07.318Z,54.04
2019-04-29T14:05:37.799Z,54.55
2019-04-29T14:08:09.289Z,54.27
2019-04-29T14:10:46.912Z,53.63
2019-04-29T14:13:20.982Z,53.38
2019-04-29T14:15:50.545Z,54.02
2019-04-29T14:18:23.069Z,53.81
2019-04-29T14:20:54.933Z,54.79
2019-04-29T14:23:27.682Z,53.75
2019-04-29T14:25:58.716Z,54.01
2019-04-29T14:28:29.719Z,54.03
2019-04-29T14:31:00.929Z,54.72
2019-04-29T14:33:33.655Z,55.60
2019-04-29T14:36:06.236Z,54.78
2019-04-29T14:38:40.579Z,54.80
2019-04-29T14:41:14.211Z,55.43
2019-04-29T14:43:55.006Z,56.21
2019-04-29T14:46:28.703Z,56.44
2019-04-29T14:49:10.471Z,56.79
2019-04-29T14:51:41.482Z,57.22
2019-04-29T14:54:12.401Z,57.46
2019-04-29T14:56:45.722Z,57.49
2019-04-29T14:59:16.787Z,57.37
2019-04-29T15:01:55.579Z,57.28
2019-04-29T15:04:28.134Z,57.81
2019-04-29T15:07:01.498Z,57.78
2019-04-29T15:09:45.962Z,57.84
2019-04-29T15:12:10.511Z,57.94
2019-04-29T15:15:01.077Z,58.40
2019-04-29T15:17:35.133Z,58.60
2019-04-29T15:20:09.149Z,58.38
2019-04-29T15:22:42.004Z,58.37
2019-04-29T15:25:16.775Z,58.18
2019-04-29T15:27:46.844Z,57.91
2019-04-29T15:30:18.739Z,57.39
2019-04-29T15:32:53.126Z,57.33
2019-04-29T15:35:24.295Z,57.50
2019-04-29T15:37:55.315Z,57.63
2019-04-29T15:40:28.771Z,57.46
2019-04-29T15:43:01.141Z,57.33
2019-04-29T15:45:34.124Z,58.00
2019-04-29T15:48:05.050Z,57.71
2019-04-29T15:50:37.019Z,57.70
2019-04-29T15:53:08.998Z,57.61
2019-04-29T15:55:41.679Z,57.39
2019-04-29T15:58:13.705Z,56.67
2019-04-29T16:00:44.707Z,57.03
2019-04-29T16:03:17.769Z,56.77
2019-04-29T16:06:11.159Z,56.99
2019-04-29T16:08:30.446Z,56.59
2019-04-29T16:11:03.012Z,56.58
2019-04-29T16:13:34.980Z,56.50
2019-04-29T16:16:06.471Z,56.57
2019-04-29T16:18:37.540Z,56.41
2019-04-29T16:21:08.462Z,56.59
2019-04-29T16:23:41.805Z,56.63
2019-04-29T16:26:12.830Z,56.90
2019-04-29T16:28:44.918Z,56.75
2019-04-29T16:31:15.962Z,57.24
2019-04-29T16:33:54.310Z,57.70
2019-04-29T16:36:19.694Z,58.12
2019-04-29T16:38:53.493Z,58.00
2019-04-29T16:41:35.691Z,57.79
2019-04-29T16:44:34.152Z,57.63
2019-04-29T16:46:47.129Z,58.09
2019-04-29T16:49:21.318Z,58.08
2019-04-29T16:51:55.857Z,57.71
2019-04-29T16:54:28.313Z,57.89
2019-04-29T16:56:59.678Z,57.92
2019-04-29T16:59:31.615Z,58.48
2019-04-29T17:02:04.140Z,58.58
2019-04-29T17:04:35.083Z,58.55
2019-04-29T17:07:13.983Z,58.22
2019-04-29T17:09:43.706Z,58.47
2019-04-29T17:12:14.888Z,59.62
2019-04-29T17:15:04.057Z,59.64
2019-04-29T17:17:29.289Z,59.03
2019-04-29T17:19:56.849Z,58.70
2019-04-29T17:22:27.951Z,58.93
2019-04-29T17:24:59.881Z,59.16
2019-04-29T17:27:41.910Z,58.88
2019-04-29T17:30:11.706Z,59.09
2019-04-29T17:32:48.511Z,59.12
2019-04-29T17:35:21.699Z,59.53
2019-04-29T17:37:50.620Z,59.33
2019-04-29T17:40:21.720Z,59.27
2019-04-29T17:42:54.301Z,59.40
2019-04-29T17:45:43.140Z,59.64
2019-04-29T17:48:21.525Z,59.62
2019-04-29T17:50:54.153Z,59.54
2019-04-29T17:53:26.764Z,59.94
2019-04-29T17:56:02.174Z,60.05
2019-04-29T17:58:51.250Z,60.19
2019-04-29T18:01:23.860Z,60.32
2019-04-29T18:04:01.956Z,60.36
2019-04-29T18:06:34.580Z,60.47
2019-04-29T18:09:25.926Z,60.77
2019-04-29T18:11:57.907Z,60.97
2019-04-29T18:14:36.544Z,61.19
2019-04-29T18:17:02.580Z,61.92
2019-04-29T18:19:39.525Z,62.45
2019-04-29T18:22:29.464Z,62.54
2019-04-29T18:25:05.434Z,63.07
2019-04-29T18:27:38.081Z,63.69
2019-04-29T18:30:12.226Z,63.42
2019-04-29T18:32:46.761Z,63.57
2019-04-29T18:35:17.177Z,63.44
2019-04-29T18:37:48.215Z,63.61
2019-04-29T18:40:19.317Z,63.80
2019-04-29T18:42:51.478Z,63.91
2019-04-29T18:45:29.571Z,63.83
2019-04-29T18:47:59.269Z,64.02
2019-04-29T18:50:34.306Z,64.34
2019-04-29T18:53:03.064Z,64.33
2019-04-29T18:55:35.327Z,64.39
2019-04-29T18:58:08.047Z,64.46
2019-04-29T19:00:39.050Z,64.36
2019-04-29T19:03:12.600Z,64.23
2019-04-29T19:05:46.621Z,64.23
2019-04-29T19:08:23.093Z,64.36
2019-04-29T19:10:52.617Z,64.56
2019-04-29T19:13:26.043Z,64.53
2019-04-29T19:16:09.134Z,64.57
2019-04-29T19:18:30.723Z,64.50
2019-04-29T19:21:01.703Z,64.46
2019-04-29T19:23:32.636Z,64.43
2019-04-29T19:26:04.608Z,64.51
2019-04-29T19:28:36.922Z,64.42
2019-04-29T19:31:11.253Z,64.70
2019-04-29T19:33:46.419Z,64.84
2019-04-29T19:36:21.822Z,64.96
2019-04-29T19:38:51.719Z,64.94
2019-04-29T19:41:27.615Z,64.97
2019-04-29T19:44:01.679Z,65.17
2019-04-29T19:46:38.282Z,65.17
2019-04-29T19:49:09.851Z,65.16
2019-04-29T19:51:39.299Z,65.14
2019-04-29T19:54:11.037Z,65.14
2019-04-29T19:56:42.173Z,65.34
2019-04-29T19:59:16.622Z,65.36
2019-04-29T20:01:49.612Z,65.44
2019-04-29T20:04:22.535Z,65.63
2019-04-29T20:06:58.654Z,65.65
2019-04-29T20:09:28.601Z,65.74
2019-04-29T20:12:11.398Z,65.79
2019-04-29T20:14:36.713Z,65.92
2019-04-29T20:17:26.823Z,66.18
2019-04-29T20:20:08.910Z,66.36
2019-04-29T20:22:43.455Z,66.69
2019-04-29T20:25:13.361Z,66.81
2019-04-29T20:27:45.954Z,66.84
2019-04-29T20:30:20.656Z,67.01
2019-04-29T20:32:50.365Z,67.67
2019-04-29T20:35:22.640Z,67.59
2019-04-29T20:37:56.649Z,67.73
2019-04-29T20:40:35.106Z,67.81
2019-04-29T20:43:00.993Z,68.18
2019-04-29T20:45:32.172Z,68.36
2019-04-29T20:48:03.528Z,68.44
2019-04-29T20:50:35.739Z,68.42
2019-04-29T20:53:30.505Z,68.86
2019-04-29T20:56:09.410Z,69.45
2019-04-29T20:58:33.258Z,69.26
2019-04-29T21:01:10.781Z,69.45
2019-04-29T21:03:40.774Z,69.30
2019-04-29T21:06:12.660Z,69.60
2019-04-29T21:08:50.985Z,69.71
2019-04-29T21:11:21.018Z,69.87
2019-04-29T21:13:57.307Z,70.02
2019-04-29T21:16:30.945Z,69.86
2019-04-29T21:19:08.813Z,70.30
2019-04-29T21:21:41.884Z,70.44
2019-04-29T21:24:17.475Z,70.63
2019-04-29T21:26:45.988Z,70.70
2019-04-29T21:29:19.448Z,70.79
2019-04-29T21:31:58.619Z,71.13
2019-04-29T21:34:25.612Z,71.13
2019-04-29T21:37:05.593Z,71.10
2019-04-29T21:39:36.523Z,71.24
2019-04-29T21:42:18.817Z,71.20
2019-04-29T21:44:49.913Z,71.20
2019-04-29T21:47:25.318Z,71.25
2019-04-29T21:49:57.736Z,70.97
2019-04-29T21:52:28.579Z,71.18
2019-04-29T21:54:59.616Z,71.14
2019-04-29T21:57:32.359Z,71.22
2019-04-29T22:00:05.710Z,71.65
2019-04-29T22:02:36.907Z,71.54
2019-04-29T22:05:09.553Z,71.77
2019-04-29T22:07:44.583Z,71.67
2019-04-29T22:10:15.279Z,71.87
2019-04-29T22:12:46.570Z,72.17
2019-04-29T22:15:29.269Z,71.90
2019-04-29T22:17:56.595Z,71.86
2019-04-29T22:20:23.403Z,72.00
2019-04-29T22:22:55.925Z,72.39
2019-04-29T22:25:28.517Z,72.29
2019-04-29T22:28:01.061Z,72.28
2019-04-29T22:30:35.409Z,72.26
2019-04-29T22:33:07.349Z,72.37
2019-04-29T22:35:40.759Z,72.49
2019-04-29T22:38:12.659Z,72.64
2019-04-29T22:40:45.224Z,72.75
2019-04-29T22:43:19.475Z,72.33
2019-04-29T22:45:52.048Z,72.42
2019-04-29T22:48:24.894Z,72.86
2019-04-29T22:50:56.069Z,72.66
2019-04-29T22:53:27.343Z,72.98
2019-04-29T22:55:58.436Z,73.19
2019-04-29T22:58:29.512Z,73.00
2019-04-29T23:01:02.493Z,73.49
2019-04-29T23:03:38.745Z,73.54
2019-04-29T23:06:11.725Z,73.66
2019-04-29T23:08:47.965Z,73.54
2019-04-29T23:11:19.009Z,73.05
2019-04-29T23:13:50.279Z,73.27
2019-04-29T23:16:24.370Z,73.67
2019-04-29T23:18:55.573Z,73.82
2019-04-29T23:21:43.236Z,73.61
2019-04-29T23:24:13.172Z,73.61
2019-04-29T23:26:44.909Z,73.55
2019-04-29T23:29:16.368Z,73.47
2019-04-29T23:31:47.427Z,74.11
2019-04-29T23:34:20.192Z,74.21
2019-04-29T23:36:51.243Z,73.73
2019-04-29T23:39:22.440Z,73.55
2019-04-29T23:41:55.366Z,73.98
2019-04-29T23:44:26.288Z,73.93
2019-04-29T23:46:58.789Z,73.73
2019-04-29T23:49:29.896Z,73.57
2019-04-29T23:52:00.973Z,73.62
2019-04-29T23:54:43.749Z,73.71
2019-04-29T23:57:07.252Z,73.53
2019-04-29T23:59:39.885Z,73.96
